createdAt,value
2023-01-09T00:01:17.268Z,6.05
2023-01-09T00:03:43.787Z,4.93
2023-01-09T00:06:10.384Z,6.43
2023-01-09T00:08:37.591Z,5.40
2023-01-09T00:11:04.556Z,5.43
2023-01-09T00:13:34.489Z,5.57
2023-01-09T00:16:01.263Z,6.25
2023-01-09T00:18:27.764Z,4.55
2023-01-09T00:20:54.504Z,4.63
2023-01-09T00:23:21.103Z,4.50
2023-01-09T00:25:47.553Z,5.32
2023-01-09T00:28:14.128Z,5.00
2023-01-09T00:30:47.134Z,5.57
2023-01-09T00:33:13.762Z,4.65
2023-01-09T00:35:40.223Z,6.50
2023-01-09T00:38:06.880Z,6.05
2023-01-09T00:40:33.879Z,7.97
2023-01-09T00:43:06.093Z,8.60
2023-01-09T00:45:33.270Z,6.85
2023-01-09T00:48:07.143Z,7.90
2023-01-09T00:50:35.174Z,8.38
2023-01-09T00:53:08.403Z,8.35
2023-01-09T00:55:40.442Z,9.05
2023-01-09T00:58:07.134Z,7.75
2023-01-09T01:00:33.700Z,8.20
2023-01-09T01:03:02.100Z,9.25
2023-01-09T01:05:47.605Z,6.68
2023-01-09T01:08:18.148Z,3.08
2023-01-09T01:10:46.100Z,2.45
2023-01-09T01:13:13.473Z,1.98
2023-01-09T01:15:44.389Z,1.80
2023-01-09T01:18:12.581Z,1.40
2023-01-09T01:20:44.682Z,1.38
2023-01-09T01:23:15.829Z,1.20
2023-01-09T01:25:42.819Z,1.10
2023-01-09T01:28:10.555Z,0.90
2023-01-09T01:30:48.548Z,0.68
2023-01-09T01:33:15.060Z,0.47
2023-01-09T01:35:41.885Z,0.43
2023-01-09T01:38:08.475Z,0.40
2023-01-09T01:40:34.952Z,0.30
2023-01-09T01:43:01.584Z,0.30
2023-01-09T01:45:29.577Z,0.40
2023-01-09T01:48:20.921Z,0.60
2023-01-09T01:50:59.425Z,0.40
2023-01-09T01:53:39.617Z,0.30
2023-01-09T01:56:21.027Z,0.32
2023-01-09T01:58:55.109Z,0.30
2023-01-09T02:01:26.356Z,0.43
2023-01-09T02:03:57.273Z,0.30
2023-01-09T02:06:24.216Z,0.10
2023-01-09T02:08:53.271Z,0.30
2023-01-09T02:11:20.606Z,0.25
2023-01-09T02:13:48.175Z,0.20
2023-01-09T02:16:49.606Z,0.10
2023-01-09T02:19:16.416Z,0.20
2023-01-09T02:22:12.848Z,0.30
2023-01-09T02:25:03.499Z,0.52
2023-01-09T02:28:03.749Z,0.40
2023-01-09T02:30:40.557Z,0.45
2023-01-09T02:33:12.938Z,0.30
2023-01-09T02:35:39.335Z,0.30
2023-01-09T02:38:51.335Z,0.22
2023-01-09T02:41:23.064Z,0.22
2023-01-09T02:44:15.028Z,0.30
2023-01-09T02:46:41.621Z,0.28
2023-01-09T02:49:08.547Z,0.40
2023-01-09T02:51:42.340Z,0.25
2023-01-09T02:54:20.222Z,0.30
2023-01-09T02:57:10.651Z,0.40
2023-01-09T03:00:16.328Z,0.28
2023-01-09T03:02:52.592Z,0.32
2023-01-09T03:05:45.107Z,0.40
2023-01-09T03:08:19.691Z,0.30
2023-01-09T03:10:52.378Z,0.30
2023-01-09T03:13:25.300Z,0.40
2023-01-09T03:15:55.467Z,0.20
2023-01-09T03:18:26.029Z,0.38
2023-01-09T03:20:58.522Z,0.20
2023-01-09T03:23:25.137Z,0.22
2023-01-09T03:25:51.619Z,0.32
2023-01-09T03:28:31.304Z,0.40
2023-01-09T03:30:57.776Z,0.25
2023-01-09T03:33:26.371Z,0.43
2023-01-09T03:35:54.548Z,0.10
2023-01-09T03:38:21.063Z,0.30
2023-01-09T03:40:47.604Z,0.25
2023-01-09T03:43:20.633Z,0.38
2023-01-09T03:45:47.242Z,0.30
2023-01-09T03:48:13.731Z,0.30
2023-01-09T03:50:44.325Z,0.30
2023-01-09T03:53:13.111Z,0.50
2023-01-09T03:55:47.218Z,0.50
2023-01-09T03:58:14.792Z,0.35
2023-01-09T04:00:42.083Z,0.40
2023-01-09T04:03:11.348Z,0.17
2023-01-09T04:05:38.648Z,0.40
2023-01-09T04:08:05.569Z,0.30
2023-01-09T04:10:32.656Z,0.40
2023-01-09T04:12:59.179Z,0.30
2023-01-09T04:15:25.875Z,0.60
2023-01-09T04:17:56.688Z,0.60
2023-01-09T04:20:23.163Z,0.60
2023-01-09T04:22:49.600Z,0.30
2023-01-09T04:25:18.300Z,0.22
2023-01-09T04:27:44.803Z,0.77
2023-01-09T04:30:11.654Z,0.40
2023-01-09T04:32:38.396Z,0.40
2023-01-09T04:35:05.407Z,0.50
2023-01-09T04:37:31.926Z,0.28
2023-01-09T04:40:04.985Z,0.60
2023-01-09T04:42:31.478Z,0.40
2023-01-09T04:44:57.931Z,0.40
2023-01-09T04:47:26.359Z,0.30
2023-01-09T04:49:53.123Z,0.60
2023-01-09T04:52:19.966Z,0.70
2023-01-09T04:54:46.589Z,0.50
2023-01-09T04:57:13.047Z,0.60
2023-01-09T04:59:39.861Z,0.50
2023-01-09T05:02:08.488Z,0.70
2023-01-09T05:04:35.336Z,0.50
2023-01-09T05:07:02.279Z,0.68
2023-01-09T05:09:29.026Z,0.40
2023-01-09T05:11:57.780Z,1.08
2023-01-09T05:14:24.300Z,0.82
2023-01-09T05:16:51.007Z,1.08
2023-01-09T05:19:17.614Z,1.30
2023-01-09T05:21:44.090Z,0.88
2023-01-09T05:24:17.107Z,1.63
2023-01-09T05:26:43.683Z,1.38
2023-01-09T05:29:10.775Z,1.10
2023-01-09T05:31:37.488Z,1.10
2023-01-09T05:34:04.217Z,1.13
2023-01-09T05:36:32.851Z,0.70
2023-01-09T05:38:59.522Z,0.70
2023-01-09T05:41:26.517Z,0.50
2023-01-09T05:43:53.469Z,0.50
2023-01-09T05:46:24.798Z,0.68
2023-01-09T05:48:51.310Z,0.40
2023-01-09T05:51:18.044Z,0.40
2023-01-09T05:53:46.270Z,0.40
2023-01-09T05:56:12.740Z,0.30
2023-01-09T05:58:42.950Z,0.52
2023-01-09T06:01:09.615Z,0.52
2023-01-09T06:03:36.144Z,0.47
2023-01-09T06:06:02.682Z,0.70
2023-01-09T06:08:31.442Z,0.60
2023-01-09T06:10:59.908Z,0.63
2023-01-09T06:13:26.419Z,0.60
2023-01-09T06:15:53.127Z,0.82
2023-01-09T06:18:19.596Z,0.80
2023-01-09T06:20:46.158Z,0.60
2023-01-09T06:23:20.967Z,0.73
2023-01-09T06:25:47.431Z,0.90
2023-01-09T06:28:14.084Z,0.63
2023-01-09T06:30:40.833Z,0.77
2023-01-09T06:33:07.413Z,0.85
2023-01-09T06:35:38.554Z,0.65
2023-01-09T06:38:07.459Z,0.47
2023-01-09T06:40:33.971Z,0.73
2023-01-09T06:43:00.447Z,0.60
2023-01-09T06:45:27.144Z,0.50
2023-01-09T06:47:53.876Z,0.77
2023-01-09T06:50:20.499Z,0.52
2023-01-09T06:52:47.003Z,0.70
2023-01-09T06:55:13.624Z,0.50
2023-01-09T06:57:40.396Z,0.57
2023-01-09T07:00:11.951Z,0.50
2023-01-09T07:02:46.058Z,0.50
2023-01-09T07:05:21.513Z,0.60
2023-01-09T07:07:48.049Z,1.10
2023-01-09T07:10:15.337Z,0.50
2023-01-09T07:12:42.057Z,0.30
2023-01-09T07:15:09.380Z,0.50
2023-01-09T07:17:35.930Z,0.40
2023-01-09T07:20:03.273Z,0.50
2023-01-09T07:22:29.761Z,0.77
2023-01-09T07:24:56.375Z,0.70
2023-01-09T07:27:23.026Z,0.57
2023-01-09T07:29:51.233Z,0.60
2023-01-09T07:32:17.825Z,0.68
2023-01-09T07:34:44.573Z,1.20
2023-01-09T07:37:14.631Z,1.05
2023-01-09T07:39:41.127Z,1.23
2023-01-09T07:42:09.518Z,0.90
2023-01-09T07:44:36.106Z,1.08
2023-01-09T07:47:02.643Z,1.00
2023-01-09T07:49:34.591Z,1.10
2023-01-09T07:52:01.432Z,0.70
2023-01-09T07:54:27.943Z,1.08
2023-01-09T07:56:54.492Z,0.88
2023-01-09T07:59:20.947Z,1.23
2023-01-09T08:01:49.863Z,1.38
2023-01-09T08:04:24.379Z,1.40
2023-01-09T08:06:50.912Z,1.33
2023-01-09T08:09:17.458Z,2.22
2023-01-09T08:11:47.430Z,1.50
2023-01-09T08:14:14.096Z,1.50
2023-01-09T08:16:42.843Z,1.02
2023-01-09T08:19:12.323Z,0.90
2023-01-09T08:21:39.862Z,1.10
2023-01-09T08:24:06.751Z,1.10
2023-01-09T08:26:35.557Z,1.02
2023-01-09T08:29:06.609Z,1.02
2023-01-09T08:31:33.177Z,1.10
2023-01-09T08:34:00.133Z,0.93
2023-01-09T08:36:26.684Z,1.00
2023-01-09T08:38:53.239Z,1.05
2023-01-09T08:41:40.343Z,1.00
2023-01-09T08:44:25.262Z,1.52
2023-01-09T08:47:05.569Z,0.90
2023-01-09T08:49:36.415Z,0.90
2023-01-09T08:52:03.403Z,1.00
2023-01-09T08:54:31.409Z,1.20
2023-01-09T08:56:58.188Z,0.80
2023-01-09T08:59:24.747Z,1.00
2023-01-09T09:01:55.644Z,1.05
2023-01-09T09:04:22.303Z,1.00
2023-01-09T09:06:48.921Z,0.98
2023-01-09T09:09:23.979Z,1.00
2023-01-09T09:11:50.521Z,1.20
2023-01-09T09:14:35.441Z,1.67
2023-01-09T09:17:02.082Z,1.42
2023-01-09T09:19:28.587Z,1.73
2023-01-09T09:22:02.751Z,1.10
2023-01-09T09:24:29.236Z,1.45
2023-01-09T09:26:55.686Z,1.25
2023-01-09T09:29:24.412Z,1.23
2023-01-09T09:31:50.915Z,1.08
2023-01-09T09:34:17.689Z,0.85
2023-01-09T09:36:52.258Z,0.77
2023-01-09T09:39:18.955Z,0.85
2023-01-09T09:42:34.975Z,0.73
2023-01-09T09:45:16.576Z,0.80
2023-01-09T09:48:04.503Z,0.68
2023-01-09T09:50:52.700Z,0.85
2023-01-09T09:53:40.244Z,0.70
2023-01-09T09:56:12.692Z,0.82
2023-01-09T09:58:46.556Z,0.80
2023-01-09T10:01:19.174Z,1.00
2023-01-09T10:04:10.535Z,0.65
2023-01-09T10:06:43.434Z,1.58
2023-01-09T10:09:46.554Z,1.23
2023-01-09T10:12:24.584Z,1.48
2023-01-09T10:14:53.505Z,0.98
2023-01-09T10:17:28.697Z,1.30
2023-01-09T10:20:23.563Z,1.20
2023-01-09T10:23:13.257Z,0.90
2023-01-09T10:26:10.089Z,1.52
2023-01-09T10:29:05.709Z,1.30
2023-01-09T10:31:42.831Z,1.40
2023-01-09T10:34:37.114Z,1.38
2023-01-09T10:37:22.182Z,0.75
2023-01-09T10:39:54.518Z,0.63
2023-01-09T10:42:42.152Z,0.63
2023-01-09T10:45:42.054Z,0.70
2023-01-09T10:48:21.153Z,0.38
2023-01-09T10:50:50.313Z,0.60
2023-01-09T10:53:22.198Z,0.50
2023-01-09T10:55:55.476Z,0.55
2023-01-09T10:58:23.108Z,0.43
2023-01-09T11:00:51.024Z,0.40
2023-01-09T11:03:20.860Z,0.63
2023-01-09T11:05:52.754Z,0.47
2023-01-09T11:08:37.129Z,0.40
2023-01-09T11:11:04.067Z,0.47
2023-01-09T11:13:33.567Z,0.50
2023-01-09T11:16:27.618Z,0.43
2023-01-09T11:18:58.011Z,0.45
2023-01-09T11:21:30.513Z,0.50
2023-01-09T11:24:18.737Z,0.40
2023-01-09T11:26:46.548Z,0.43
2023-01-09T11:29:15.702Z,0.30
2023-01-09T11:31:50.380Z,0.60
2023-01-09T11:34:19.185Z,0.80
2023-01-09T11:36:46.871Z,1.27
2023-01-09T11:39:26.654Z,0.80
2023-01-09T11:41:59.177Z,0.70
2023-01-09T11:44:29.336Z,0.52
2023-01-09T11:46:58.617Z,0.85
2023-01-09T11:49:30.387Z,1.30
2023-01-09T11:52:18.244Z,0.98
2023-01-09T11:55:10.346Z,0.68
2023-01-09T11:57:37.025Z,0.70
2023-01-09T12:00:24.017Z,0.55
2023-01-09T12:03:32.074Z,0.50
2023-01-09T12:06:11.655Z,1.02
2023-01-09T12:09:02.615Z,0.77
2023-01-09T12:11:36.743Z,0.50
2023-01-09T12:14:37.695Z,0.57
2023-01-09T12:17:30.655Z,1.02
2023-01-09T12:20:16.815Z,0.80
2023-01-09T12:28:05.353Z,0.80
2023-01-09T12:30:39.616Z,1.00
2023-01-09T12:33:34.395Z,0.70
2023-01-09T12:36:25.679Z,1.13
2023-01-09T12:39:22.285Z,1.30
2023-01-09T12:41:59.855Z,1.27
2023-01-09T12:44:40.335Z,0.90
2023-01-09T12:47:26.700Z,1.00
2023-01-09T12:50:31.886Z,1.02
2023-01-09T12:53:30.872Z,0.90
2023-01-09T12:56:08.280Z,0.88
2023-01-09T12:58:41.368Z,1.30
2023-01-09T13:01:16.513Z,0.90
2023-01-09T13:04:12.508Z,1.05
2023-01-09T13:06:48.709Z,0.95
2023-01-09T13:09:26.901Z,1.20
2023-01-09T13:12:16.449Z,1.10
2023-01-09T13:14:58.301Z,1.00
2023-01-09T13:17:55.478Z,1.40
2023-01-09T13:20:44.693Z,1.63
2023-01-09T13:23:26.399Z,1.10
2023-01-09T13:25:57.707Z,0.95
2023-01-09T13:28:33.144Z,1.40
2023-01-09T13:31:25.889Z,1.08
2023-01-09T13:33:58.382Z,1.33
2023-01-09T13:36:33.576Z,1.05
2023-01-09T13:39:01.954Z,0.77
2023-01-09T13:41:48.539Z,1.02
2023-01-09T13:44:18.236Z,1.10
2023-01-09T13:46:50.096Z,1.25
2023-01-09T13:49:34.560Z,1.48
2023-01-09T13:52:25.469Z,1.30
2023-01-09T13:55:01.100Z,1.20
2023-01-09T13:57:35.230Z,1.25
2023-01-09T14:00:16.361Z,1.45
2023-01-09T14:02:46.765Z,1.38
2023-01-09T14:05:27.373Z,1.30
2023-01-09T14:08:15.717Z,1.25
2023-01-09T14:10:57.824Z,1.17
2023-01-09T14:13:28.004Z,1.75
2023-01-09T14:16:16.769Z,1.60
2023-01-09T14:19:01.003Z,1.45
2023-01-09T14:21:46.339Z,1.50
2023-01-09T14:24:23.313Z,1.50
2023-01-09T14:26:56.707Z,1.40
2023-01-09T14:29:35.804Z,1.70
2023-01-09T14:32:27.712Z,1.35
2023-01-09T14:35:03.019Z,1.58
2023-01-09T14:37:33.374Z,1.38
2023-01-09T14:40:00.408Z,1.17
2023-01-09T14:42:31.085Z,1.33
2023-01-09T14:45:05.105Z,2.25
2023-01-09T14:47:31.648Z,1.52
2023-01-09T14:50:21.918Z,1.20
2023-01-09T14:52:51.817Z,0.90
2023-01-09T14:55:32.443Z,0.73
2023-01-09T14:58:24.840Z,0.60
2023-01-09T15:00:53.425Z,0.60
2023-01-09T15:03:22.188Z,0.50
2023-01-09T15:05:50.174Z,0.50
2023-01-09T15:08:23.609Z,0.55
2023-01-09T15:10:53.394Z,0.80
2023-01-09T15:13:29.354Z,0.52
2023-01-09T15:15:56.290Z,0.82
2023-01-09T15:18:25.902Z,0.85
2023-01-09T15:20:59.302Z,1.00
2023-01-09T15:23:29.403Z,0.90
2023-01-09T15:25:57.610Z,0.60
2023-01-09T15:28:27.636Z,0.75
2023-01-09T15:31:02.870Z,0.90
2023-01-09T15:33:31.637Z,0.60
2023-01-09T15:36:02.186Z,0.73
2023-01-09T15:38:31.646Z,0.63
2023-01-09T15:41:03.111Z,0.55
2023-01-09T15:43:31.451Z,0.57
2023-01-09T15:45:59.234Z,0.50
2023-01-09T15:48:25.861Z,0.80
2023-01-09T15:51:01.608Z,1.10
2023-01-09T15:56:20.291Z,1.40
2023-01-09T15:58:49.374Z,1.35
2023-01-09T16:01:41.468Z,1.15
2023-01-09T16:04:18.861Z,1.10
2023-01-09T16:06:47.987Z,1.10
2023-01-09T16:09:31.364Z,0.98
2023-01-09T16:12:01.063Z,0.82
2023-01-09T16:14:39.913Z,0.95
2023-01-09T16:17:15.236Z,0.95
2023-01-09T16:19:54.323Z,1.10
2023-01-09T16:22:54.420Z,1.10
2023-01-09T16:25:31.247Z,0.75
2023-01-09T16:28:08.545Z,0.80
2023-01-09T16:30:36.837Z,1.20
2023-01-09T16:33:03.536Z,1.10
2023-01-09T16:35:30.058Z,1.05
2023-01-09T16:37:58.372Z,0.90
2023-01-09T16:40:27.094Z,1.27
2023-01-09T16:43:03.847Z,0.65
2023-01-09T16:45:32.654Z,1.02
2023-01-09T16:47:59.907Z,1.08
2023-01-09T16:50:26.771Z,0.68
2023-01-09T16:52:53.474Z,0.82
2023-01-09T16:55:19.980Z,1.08
2023-01-09T16:57:51.615Z,0.80
2023-01-09T17:00:19.867Z,1.23
2023-01-09T17:02:46.529Z,0.98
2023-01-09T17:05:14.788Z,0.80
2023-01-09T17:07:41.498Z,0.70
2023-01-09T17:10:19.446Z,0.95
2023-01-09T17:12:50.431Z,0.98
2023-01-09T17:15:16.982Z,0.82
2023-01-09T17:17:43.646Z,0.73
2023-01-09T17:20:19.615Z,0.65
2023-01-09T17:22:46.381Z,0.80
2023-01-09T17:25:33.512Z,1.05
2023-01-09T17:28:23.131Z,1.13
2023-01-09T17:30:49.676Z,0.90
2023-01-09T17:33:18.678Z,0.60
2023-01-09T17:35:45.474Z,0.77
2023-01-09T17:38:17.026Z,0.95
2023-01-09T17:40:44.876Z,1.05
2023-01-09T17:43:13.763Z,1.00
2023-01-09T17:45:41.541Z,0.70
2023-01-09T17:48:14.910Z,1.00
2023-01-09T17:50:48.012Z,0.73
2023-01-09T17:53:15.267Z,0.35
2023-01-09T17:55:42.213Z,0.50
2023-01-09T17:58:24.970Z,0.38
2023-01-09T18:00:52.195Z,0.52
2023-01-09T18:03:20.781Z,0.63
2023-01-09T18:05:47.454Z,0.50
2023-01-09T18:08:13.942Z,0.65
2023-01-09T18:10:40.770Z,0.60
2023-01-09T18:13:10.595Z,0.73
2023-01-09T18:15:41.402Z,0.70
2023-01-09T18:18:16.435Z,0.57
2023-01-09T18:20:44.319Z,0.70
2023-01-09T18:23:11.884Z,0.60
2023-01-09T18:25:46.901Z,0.73
2023-01-09T18:28:18.598Z,1.10
2023-01-09T18:33:37.455Z,1.38
2023-01-09T18:36:09.173Z,1.30
2023-01-09T18:38:36.048Z,1.38
2023-01-09T18:41:05.001Z,1.15
2023-01-09T18:43:31.512Z,1.38
2023-01-09T18:46:01.513Z,1.60
2023-01-09T18:48:28.293Z,1.20
2023-01-09T18:51:03.423Z,1.17
2023-01-09T18:53:30.116Z,1.30
2023-01-09T18:56:02.004Z,1.55
2023-01-09T18:58:28.492Z,1.23
2023-01-09T19:00:56.095Z,1.05
2023-01-09T19:03:22.846Z,1.00
2023-01-09T19:05:49.376Z,1.25
2023-01-09T19:08:24.156Z,0.93
2023-01-09T19:10:52.507Z,0.88
2023-01-09T19:13:19.221Z,1.00
2023-01-09T19:15:47.482Z,1.02
2023-01-09T19:18:19.351Z,1.02
2023-01-09T19:20:46.042Z,0.70
2023-01-09T19:23:18.899Z,0.70
2023-01-09T19:25:48.540Z,0.65
2023-01-09T19:28:15.071Z,1.00
2023-01-09T19:30:43.704Z,1.20
2023-01-09T19:33:11.657Z,1.02
2023-01-09T19:35:38.918Z,0.90
2023-01-09T19:38:07.669Z,0.73
2023-01-09T19:40:35.898Z,0.90
2023-01-09T19:43:02.394Z,0.95
2023-01-09T19:45:31.375Z,0.88
2023-01-09T19:47:57.934Z,0.90
2023-01-09T19:50:24.380Z,1.42
2023-01-09T19:52:52.753Z,1.65
2023-01-09T19:55:19.273Z,1.55
2023-01-09T19:57:50.379Z,1.98
2023-01-09T20:00:18.765Z,1.40
2023-01-09T20:02:45.306Z,1.40
2023-01-09T20:05:11.859Z,1.23
2023-01-09T20:07:38.621Z,1.10
2023-01-09T20:10:07.363Z,1.33
2023-01-09T20:12:33.838Z,1.35
2023-01-09T20:15:00.516Z,1.00
2023-01-09T20:17:27.046Z,1.25
2023-01-09T20:19:53.528Z,1.02
2023-01-09T20:22:24.515Z,1.73
2023-01-09T20:24:50.979Z,1.27
2023-01-09T20:27:17.777Z,1.00
2023-01-09T20:29:46.397Z,1.10
2023-01-09T20:32:13.454Z,1.48
2023-01-09T20:34:39.933Z,1.23
2023-01-09T20:37:06.672Z,1.20
2023-01-09T20:39:33.397Z,1.20
2023-01-09T20:42:00.127Z,1.10
2023-01-09T20:44:33.045Z,1.25
2023-01-09T20:46:59.548Z,1.38
2023-01-09T20:49:26.323Z,1.00
2023-01-09T20:51:53.073Z,0.88
2023-01-09T20:54:21.673Z,1.30
2023-01-09T20:56:48.536Z,1.00
2023-01-09T20:59:22.568Z,1.15
2023-01-09T21:01:51.610Z,1.42
2023-01-09T21:04:18.342Z,1.25
2023-01-09T21:06:44.912Z,1.55
2023-01-09T21:09:11.380Z,1.70
2023-01-09T21:11:38.015Z,1.80
2023-01-09T21:14:09.093Z,1.98
2023-01-09T21:16:35.611Z,1.80
2023-01-09T21:19:02.312Z,1.55
2023-01-09T21:21:29.416Z,2.00
2023-01-09T21:23:58.623Z,1.10
2023-01-09T21:26:28.365Z,0.95
2023-01-09T21:29:01.030Z,1.33
2023-01-09T21:31:35.178Z,0.70
2023-01-09T21:34:06.624Z,0.85
2023-01-09T21:36:35.472Z,0.90
2023-01-09T21:39:02.404Z,0.80
2023-01-09T21:41:49.249Z,0.60
2023-01-09T21:44:34.620Z,0.77
2023-01-09T21:47:08.720Z,0.60
2023-01-09T21:49:39.270Z,0.52
2023-01-09T21:52:05.844Z,0.68
2023-01-09T21:54:35.240Z,0.45
2023-01-09T21:57:02.329Z,0.40
2023-01-09T21:59:29.215Z,0.50
2023-01-09T22:01:55.742Z,0.40
2023-01-09T22:04:24.695Z,0.30
2023-01-09T22:06:51.625Z,0.50
2023-01-09T22:09:20.452Z,0.32
2023-01-09T22:11:48.884Z,0.47
2023-01-09T22:14:18.016Z,0.40
2023-01-09T22:16:45.653Z,0.93
2023-01-09T22:19:13.366Z,0.80
2023-01-09T22:21:40.112Z,0.95
2023-01-09T22:24:08.708Z,0.85
2023-01-09T22:26:35.292Z,0.88
2023-01-09T22:29:01.917Z,1.52
2023-01-09T22:31:29.544Z,1.40
2023-01-09T22:33:57.923Z,1.10
2023-01-09T22:36:25.384Z,1.30
2023-01-09T22:38:56.594Z,1.63
2023-01-09T22:41:24.354Z,1.10
2023-01-09T22:43:51.091Z,2.15
2023-01-09T22:46:19.445Z,1.70
2023-01-09T22:48:47.035Z,1.23
2023-01-09T22:51:18.951Z,1.50
2023-01-09T22:53:49.737Z,1.80
2023-01-09T22:56:21.086Z,1.80
2023-01-09T22:58:57.763Z,1.58
2023-01-09T23:01:24.596Z,1.88
2023-01-09T23:03:51.331Z,1.67
2023-01-09T23:06:22.217Z,1.83
2023-01-09T23:08:50.994Z,1.77
2023-01-09T23:11:43.349Z,1.95
2023-01-09T23:14:11.164Z,1.92
2023-01-09T23:16:37.667Z,1.80
2023-01-09T23:19:10.690Z,1.63
2023-01-09T23:21:37.533Z,1.77
2023-01-09T23:24:06.904Z,1.90
2023-01-09T23:26:39.527Z,1.60
2023-01-09T23:29:07.467Z,1.80
2023-01-09T23:31:35.092Z,1.92
2023-01-09T23:34:14.243Z,2.10
2023-01-09T23:36:43.289Z,1.77
2023-01-09T23:39:10.709Z,1.83
2023-01-09T23:41:56.038Z,1.63
2023-01-09T23:44:22.548Z,1.83
2023-01-09T23:46:49.310Z,1.50
2023-01-09T23:49:22.000Z,2.28
2023-01-09T23:51:48.623Z,1.88
2023-01-09T23:54:16.512Z,1.95
2023-01-09T23:56:43.025Z,2.00
2023-01-09T23:59:14.642Z,1.92
